CTV776 WIII-WAHI
Flight info
| Callsign | CTV776 |
|---|---|
| Flight time | 0h 46m |
| Altitude | 27000 |
| Route | PW W17 CLP |
| Aircraft | A320/M-SDE3FGHIRWY/LB1 |
Departure
| Time | 2026-05-07 07:31 |
|---|---|
| Airport | Soekarno-Hatta International Airport (WIII) |
Arrival
| Time | 2026-05-07 08:18 |
|---|---|
| Airport | Yogyakarta International Airport (WAHI) |
| Time | Latitude | Longitude | Altitude | Speed | Heading |
|---|---|---|---|---|---|
| 2026-05-07 07:00 | -6.13217 | 106.65165 | 30 ft | 0 kts | 31° |
| 2026-05-07 07:17 | -6.13225 | 106.65159 | 30 ft | 2 kts | 31° |
| 2026-05-07 07:17 | -6.13239 | 106.65151 | 30 ft | 2 kts | 29° |
| 2026-05-07 07:17 | -6.13254 | 106.65143 | 30 ft | 2 kts | 26° |
| 2026-05-07 07:18 | -6.13268 | 106.65136 | 30 ft | 2 kts | 18° |
| 2026-05-07 07:18 | -6.13285 | 106.65133 | 30 ft | 2 kts | 342° |
| 2026-05-07 07:18 | -6.13296 | 106.65138 | 30 ft | 1 kts | 315° |
| 2026-05-07 07:18 | -6.13297 | 106.65140 | 30 ft | 0 kts | 315° |
| 2026-05-07 07:22 | -6.13295 | 106.65138 | 30 ft | 2 kts | 315° |
| 2026-05-07 07:22 | -6.13273 | 106.65114 | 30 ft | 7 kts | 311° |
| 2026-05-07 07:22 | -6.13219 | 106.65073 | 30 ft | 12 kts | 336° |
| 2026-05-07 07:23 | -6.13119 | 106.65060 | 31 ft | 16 kts | 347° |
| 2026-05-07 07:23 | -6.13094 | 106.64968 | 31 ft | 15 kts | 252° |
| 2026-05-07 07:23 | -6.13126 | 106.64877 | 31 ft | 13 kts | 249° |
| 2026-05-07 07:23 | -6.13158 | 106.64797 | 30 ft | 12 kts | 248° |
| 2026-05-07 07:24 | -6.13166 | 106.64728 | 30 ft | 9 kts | 306° |
| 2026-05-07 07:24 | -6.13113 | 106.64703 | 32 ft | 8 kts | 339° |
| 2026-05-07 07:24 | -6.13048 | 106.64677 | 32 ft | 12 kts | 338° |
| 2026-05-07 07:24 | -6.12953 | 106.64638 | 32 ft | 17 kts | 338° |
| 2026-05-07 07:25 | -6.12701 | 106.64540 | 32 ft | 21 kts | 339° |
| 2026-05-07 07:25 | -6.12560 | 106.64481 | 32 ft | 22 kts | 340° |
| 2026-05-07 07:25 | -6.12411 | 106.64428 | 32 ft | 23 kts | 339° |
| 2026-05-07 07:26 | -6.12315 | 106.64388 | 32 ft | 14 kts | 338° |
| 2026-05-07 07:26 | -6.12234 | 106.64352 | 32 ft | 11 kts | 335° |
| 2026-05-07 07:26 | -6.12166 | 106.64323 | 32 ft | 11 kts | 340° |
| 2026-05-07 07:26 | -6.12134 | 106.64267 | 32 ft | 10 kts | 256° |
| 2026-05-07 07:27 | -6.12157 | 106.64210 | 32 ft | 9 kts | 248° |
| 2026-05-07 07:27 | -6.12186 | 106.64137 | 33 ft | 13 kts | 248° |
| 2026-05-07 07:27 | -6.12220 | 106.64054 | 33 ft | 12 kts | 248° |
| 2026-05-07 07:27 | -6.12248 | 106.63981 | 34 ft | 10 kts | 253° |
| 2026-05-07 07:28 | -6.12251 | 106.63917 | 34 ft | 8 kts | 281° |
| 2026-05-07 07:28 | -6.12220 | 106.63886 | 34 ft | 0 kts | 336° |
| 2026-05-07 07:29 | -6.12219 | 106.63885 | 34 ft | 1 kts | 336° |
| 2026-05-07 07:29 | -6.12196 | 106.63878 | 35 ft | 6 kts | 348° |
| 2026-05-07 07:29 | -6.12142 | 106.63893 | 34 ft | 10 kts | 27° |
| 2026-05-07 07:29 | -6.12079 | 106.63928 | 33 ft | 10 kts | 36° |
| 2026-05-07 07:30 | -6.12047 | 106.63997 | 32 ft | 13 kts | 70° |
| 2026-05-07 07:30 | -6.11958 | 106.64219 | 32 ft | 67 kts | 66° |
| 2026-05-07 07:30 | -6.11703 | 106.64844 | 33 ft | 124 kts | 68° |
| 2026-05-07 07:30 | -6.11319 | 106.65805 | 31 ft | 170 kts | 67° |
| 2026-05-07 07:31 | -6.10873 | 106.66914 | 628 ft | 168 kts | 67° |
| 2026-05-07 07:31 | -6.10403 | 106.68027 | 1088 ft | 180 kts | 61° |
| 2026-05-07 07:31 | -6.09596 | 106.68988 | 1749 ft | 184 kts | 45° |
| 2026-05-07 07:31 | -6.08608 | 106.69906 | 1990 ft | 210 kts | 44° |
| 2026-05-07 07:32 | -6.07421 | 106.70976 | 2015 ft | 248 kts | 44° |
| 2026-05-07 07:32 | -6.06158 | 106.72257 | 2603 ft | 260 kts | 49° |
| 2026-05-07 07:32 | -6.04934 | 106.73611 | 3469 ft | 263 kts | 50° |
| 2026-05-07 07:32 | -6.03701 | 106.74981 | 4299 ft | 267 kts | 50° |
| 2026-05-07 07:33 | -6.02597 | 106.76481 | 5079 ft | 268 kts | 68° |
| 2026-05-07 07:33 | -6.02252 | 106.78303 | 5842 ft | 268 kts | 95° |
| 2026-05-07 07:33 | -6.02780 | 106.80092 | 6598 ft | 271 kts | 117° |
| 2026-05-07 07:33 | -6.03697 | 106.81752 | 7364 ft | 273 kts | 120° |
| 2026-05-07 07:34 | -6.04667 | 106.83409 | 8087 ft | 277 kts | 120° |
| 2026-05-07 07:34 | -6.05656 | 106.85085 | 8841 ft | 280 kts | 120° |
| 2026-05-07 07:34 | -6.06657 | 106.86776 | 9617 ft | 283 kts | 120° |
| 2026-05-07 07:34 | -6.07678 | 106.88494 | 10221 ft | 292 kts | 120° |
| 2026-05-07 07:35 | -6.08761 | 106.90312 | 10405 ft | 315 kts | 120° |
| 2026-05-07 07:35 | -6.09956 | 106.92243 | 10544 ft | 337 kts | 123° |
| 2026-05-07 07:35 | -6.11326 | 106.94206 | 10976 ft | 347 kts | 125° |
| 2026-05-07 07:35 | -6.12747 | 106.96148 | 11563 ft | 352 kts | 126° |
| 2026-05-07 07:36 | -6.14221 | 106.98121 | 12170 ft | 356 kts | 126° |
| 2026-05-07 07:36 | -6.15726 | 107.00125 | 12779 ft | 360 kts | 126° |
| 2026-05-07 07:36 | -6.17234 | 107.02140 | 13411 ft | 363 kts | 126° |
| 2026-05-07 07:36 | -6.18750 | 107.04185 | 13923 ft | 367 kts | 126° |
| 2026-05-07 07:37 | -6.20276 | 107.06256 | 14450 ft | 370 kts | 126° |
| 2026-05-07 07:37 | -6.21807 | 107.08341 | 15011 ft | 372 kts | 126° |
| 2026-05-07 07:37 | -6.23346 | 107.10441 | 15503 ft | 375 kts | 126° |
| 2026-05-07 07:37 | -6.24904 | 107.12567 | 15997 ft | 379 kts | 126° |
| 2026-05-07 07:38 | -6.26478 | 107.14715 | 16515 ft | 382 kts | 126° |
| 2026-05-07 07:38 | -6.28040 | 107.16844 | 16979 ft | 386 kts | 126° |
| 2026-05-07 07:38 | -6.29640 | 107.19026 | 17474 ft | 389 kts | 126° |
| 2026-05-07 07:38 | -6.31252 | 107.21221 | 17980 ft | 392 kts | 125° |
| 2026-05-07 07:39 | -6.32877 | 107.23431 | 18416 ft | 395 kts | 126° |
| 2026-05-07 07:39 | -6.33964 | 107.24910 | 18700 ft | 397 kts | 126° |
| 2026-05-07 07:39 | -6.35630 | 107.27177 | 19147 ft | 399 kts | 125° |
| 2026-05-07 07:39 | -6.37282 | 107.29426 | 19594 ft | 401 kts | 125° |
| 2026-05-07 07:40 | -6.38948 | 107.31695 | 19992 ft | 405 kts | 126° |
| 2026-05-07 07:40 | -6.40608 | 107.33955 | 20414 ft | 408 kts | 126° |
| 2026-05-07 07:40 | -6.42302 | 107.36259 | 20819 ft | 411 kts | 126° |
| 2026-05-07 07:40 | -6.44007 | 107.38584 | 21193 ft | 415 kts | 126° |
| 2026-05-07 07:41 | -6.45728 | 107.40932 | 21607 ft | 417 kts | 126° |
| 2026-05-07 07:41 | -6.47455 | 107.43286 | 22012 ft | 419 kts | 126° |
| 2026-05-07 07:41 | -6.49191 | 107.45652 | 22361 ft | 423 kts | 125° |
| 2026-05-07 07:41 | -6.50941 | 107.48038 | 22757 ft | 424 kts | 125° |
| 2026-05-07 07:42 | -6.52696 | 107.50433 | 23110 ft | 427 kts | 125° |
| 2026-05-07 07:42 | -6.54468 | 107.52849 | 23430 ft | 431 kts | 126° |
| 2026-05-07 07:42 | -6.56257 | 107.55285 | 23691 ft | 434 kts | 126° |
| 2026-05-07 07:42 | -6.58052 | 107.57730 | 23973 ft | 436 kts | 126° |
| 2026-05-07 07:43 | -6.59856 | 107.60190 | 24251 ft | 438 kts | 126° |
| 2026-05-07 07:43 | -6.61636 | 107.62619 | 24518 ft | 440 kts | 126° |
| 2026-05-07 07:43 | -6.63390 | 107.65012 | 24816 ft | 441 kts | 126° |
| 2026-05-07 07:43 | -6.65215 | 107.67500 | 25090 ft | 442 kts | 126° |
| 2026-05-07 07:44 | -6.67043 | 107.69999 | 25398 ft | 444 kts | 125° |
| 2026-05-07 07:44 | -6.68873 | 107.72501 | 25692 ft | 444 kts | 126° |
| 2026-05-07 07:44 | -6.70716 | 107.75013 | 25938 ft | 446 kts | 126° |
| 2026-05-07 07:44 | -6.72569 | 107.77536 | 26167 ft | 449 kts | 126° |
| 2026-05-07 07:45 | -6.74425 | 107.80064 | 26431 ft | 450 kts | 126° |
| 2026-05-07 07:45 | -6.76290 | 107.82605 | 26654 ft | 452 kts | 126° |
| 2026-05-07 07:45 | -6.78158 | 107.85156 | 26805 ft | 453 kts | 126° |
| 2026-05-07 07:45 | -6.80027 | 107.87713 | 26842 ft | 453 kts | 126° |
| 2026-05-07 07:46 | -6.81881 | 107.90253 | 26850 ft | 453 kts | 126° |
| 2026-05-07 07:46 | -6.83703 | 107.92744 | 26852 ft | 452 kts | 126° |
| 2026-05-07 07:46 | -6.85553 | 107.95273 | 26852 ft | 451 kts | 126° |
| 2026-05-07 07:46 | -6.87437 | 107.97850 | 26850 ft | 451 kts | 126° |
| 2026-05-07 07:47 | -6.89259 | 108.00343 | 26851 ft | 452 kts | 126° |
| 2026-05-07 07:47 | -6.91134 | 108.02910 | 26843 ft | 452 kts | 126° |
| 2026-05-07 07:47 | -6.93019 | 108.05492 | 26842 ft | 453 kts | 126° |
| 2026-05-07 07:47 | -6.94889 | 108.08052 | 26856 ft | 453 kts | 126° |
| 2026-05-07 07:48 | -6.96730 | 108.10569 | 26857 ft | 453 kts | 126° |
| 2026-05-07 07:48 | -6.98604 | 108.13131 | 26830 ft | 455 kts | 126° |
| 2026-05-07 07:48 | -7.00483 | 108.15702 | 26822 ft | 457 kts | 126° |
| 2026-05-07 07:48 | -7.02363 | 108.18279 | 26814 ft | 458 kts | 126° |
| 2026-05-07 07:49 | -7.04253 | 108.20868 | 26815 ft | 459 kts | 126° |
| 2026-05-07 07:49 | -7.06149 | 108.23463 | 26815 ft | 461 kts | 126° |
| 2026-05-07 07:49 | -7.08049 | 108.26064 | 26818 ft | 462 kts | 126° |
| 2026-05-07 07:49 | -7.09953 | 108.28672 | 26820 ft | 462 kts | 126° |
| 2026-05-07 07:50 | -7.11860 | 108.31284 | 26821 ft | 463 kts | 126° |
| 2026-05-07 07:50 | -7.13770 | 108.33902 | 26824 ft | 464 kts | 126° |
| 2026-05-07 07:50 | -7.15678 | 108.36520 | 26828 ft | 464 kts | 126° |
| 2026-05-07 07:50 | -7.17583 | 108.39139 | 26830 ft | 464 kts | 126° |
| 2026-05-07 07:51 | -7.19492 | 108.41763 | 26833 ft | 464 kts | 126° |
| 2026-05-07 07:51 | -7.21400 | 108.44383 | 26836 ft | 464 kts | 126° |
| 2026-05-07 07:51 | -7.23307 | 108.46998 | 26832 ft | 464 kts | 126° |
| 2026-05-07 07:51 | -7.25222 | 108.49621 | 26829 ft | 465 kts | 126° |
| 2026-05-07 07:52 | -7.27136 | 108.52244 | 26830 ft | 465 kts | 126° |
| 2026-05-07 07:52 | -7.29055 | 108.54878 | 26829 ft | 465 kts | 126° |
| 2026-05-07 07:52 | -7.30974 | 108.57513 | 26824 ft | 466 kts | 126° |
| 2026-05-07 07:52 | -7.32859 | 108.60106 | 26825 ft | 465 kts | 126° |
| 2026-05-07 07:53 | -7.34773 | 108.62737 | 26828 ft | 465 kts | 126° |
| 2026-05-07 07:53 | -7.36689 | 108.65365 | 26828 ft | 465 kts | 126° |
| 2026-05-07 07:53 | -7.38605 | 108.67992 | 26830 ft | 465 kts | 126° |
| 2026-05-07 07:53 | -7.40525 | 108.70626 | 26829 ft | 465 kts | 126° |
| 2026-05-07 07:54 | -7.42444 | 108.73259 | 26821 ft | 465 kts | 126° |
| 2026-05-07 07:54 | -7.44359 | 108.75887 | 26822 ft | 465 kts | 126° |
| 2026-05-07 07:54 | -7.46268 | 108.78514 | 26822 ft | 465 kts | 126° |
| 2026-05-07 07:54 | -7.48157 | 108.81113 | 26822 ft | 466 kts | 126° |
| 2026-05-07 07:55 | -7.50070 | 108.83747 | 26824 ft | 465 kts | 126° |
| 2026-05-07 07:55 | -7.51981 | 108.86380 | 26828 ft | 465 kts | 126° |
| 2026-05-07 07:55 | -7.53889 | 108.89011 | 26829 ft | 465 kts | 126° |
| 2026-05-07 07:55 | -7.55800 | 108.91649 | 26827 ft | 465 kts | 126° |
| 2026-05-07 07:56 | -7.57710 | 108.94280 | 26826 ft | 465 kts | 127° |
| 2026-05-07 07:56 | -7.59620 | 108.96906 | 26825 ft | 465 kts | 127° |
| 2026-05-07 07:56 | -7.61533 | 108.99537 | 26823 ft | 465 kts | 126° |
| 2026-05-07 07:56 | -7.63238 | 109.02309 | 26820 ft | 466 kts | 116° |
| 2026-05-07 07:57 | -7.64437 | 109.05340 | 26820 ft | 466 kts | 107° |
| 2026-05-07 07:57 | -7.65090 | 109.08540 | 26820 ft | 467 kts | 97° |
| 2026-05-07 07:57 | -7.65477 | 109.11798 | 26821 ft | 467 kts | 97° |
| 2026-05-07 07:57 | -7.65877 | 109.15045 | 26823 ft | 467 kts | 98° |
| 2026-05-07 07:58 | -7.66289 | 109.18300 | 26718 ft | 469 kts | 98° |
| 2026-05-07 07:58 | -7.66702 | 109.21533 | 26477 ft | 460 kts | 98° |
| 2026-05-07 07:58 | -7.67100 | 109.24675 | 26246 ft | 456 kts | 97° |
| 2026-05-07 07:58 | -7.67498 | 109.27840 | 26013 ft | 453 kts | 97° |
| 2026-05-07 07:59 | -7.67888 | 109.30967 | 25783 ft | 451 kts | 97° |
| 2026-05-07 07:59 | -7.68301 | 109.34111 | 25562 ft | 449 kts | 101° |
| 2026-05-07 07:59 | -7.69238 | 109.37094 | 25327 ft | 446 kts | 115° |
| 2026-05-07 07:59 | -7.70606 | 109.39899 | 25080 ft | 443 kts | 116° |
| 2026-05-07 08:00 | -7.71923 | 109.42672 | 24316 ft | 434 kts | 115° |
| 2026-05-07 08:00 | -7.73156 | 109.45357 | 23811 ft | 415 kts | 115° |
| 2026-05-07 08:00 | -7.74354 | 109.48005 | 22971 ft | 416 kts | 114° |
| 2026-05-07 08:00 | -7.75552 | 109.50651 | 22084 ft | 412 kts | 115° |
| 2026-05-07 08:01 | -7.76744 | 109.53262 | 21219 ft | 407 kts | 115° |
| 2026-05-07 08:01 | -7.77930 | 109.55837 | 20382 ft | 402 kts | 115° |
| 2026-05-07 08:01 | -7.79118 | 109.58404 | 19576 ft | 408 kts | 115° |
| 2026-05-07 08:01 | -7.80328 | 109.61010 | 19061 ft | 407 kts | 115° |
| 2026-05-07 08:02 | -7.81518 | 109.63571 | 18327 ft | 399 kts | 116° |
| 2026-05-07 08:02 | -7.82682 | 109.66077 | 17472 ft | 391 kts | 115° |
| 2026-05-07 08:02 | -7.83822 | 109.68533 | 16606 ft | 383 kts | 115° |
| 2026-05-07 08:02 | -7.84939 | 109.70946 | 15760 ft | 376 kts | 115° |
| 2026-05-07 08:03 | -7.86017 | 109.73286 | 14951 ft | 369 kts | 115° |
| 2026-05-07 08:03 | -7.87088 | 109.75612 | 14143 ft | 362 kts | 115° |
| 2026-05-07 08:03 | -7.88260 | 109.77828 | 13324 ft | 355 kts | 126° |
| 2026-05-07 08:03 | -7.89948 | 109.79628 | 12796 ft | 352 kts | 136° |
| 2026-05-07 08:04 | -7.91789 | 109.81224 | 12388 ft | 347 kts | 141° |
| 2026-05-07 08:04 | -7.93706 | 109.82682 | 11929 ft | 344 kts | 142° |
| 2026-05-07 08:04 | -7.95648 | 109.84082 | 11440 ft | 343 kts | 147° |
| 2026-05-07 08:04 | -7.97725 | 109.85264 | 10971 ft | 341 kts | 150° |
| 2026-05-07 08:05 | -7.99815 | 109.86369 | 10525 ft | 338 kts | 150° |
| 2026-05-07 08:05 | -8.01900 | 109.87455 | 10069 ft | 336 kts | 150° |
| 2026-05-07 08:05 | -8.03934 | 109.88486 | 9862 ft | 314 kts | 150° |
| 2026-05-07 08:05 | -8.05826 | 109.89434 | 9617 ft | 295 kts | 151° |
| 2026-05-07 08:06 | -8.07620 | 109.90354 | 9147 ft | 290 kts | 151° |
| 2026-05-07 08:06 | -8.09427 | 109.91285 | 8498 ft | 287 kts | 151° |
| 2026-05-07 08:06 | -8.11182 | 109.92176 | 7838 ft | 285 kts | 151° |
| 2026-05-07 08:06 | -8.12953 | 109.93073 | 7174 ft | 284 kts | 150° |
| 2026-05-07 08:07 | -8.14711 | 109.93972 | 6529 ft | 282 kts | 151° |
| 2026-05-07 08:07 | -8.16402 | 109.94949 | 5873 ft | 281 kts | 139° |
| 2026-05-07 08:07 | -8.17658 | 109.96411 | 5616 ft | 273 kts | 117° |
| 2026-05-07 08:07 | -8.18253 | 109.98173 | 5491 ft | 259 kts | 95° |
| 2026-05-07 08:08 | -8.18159 | 109.99933 | 5367 ft | 247 kts | 74° |
| 2026-05-07 08:08 | -8.17465 | 110.01499 | 5248 ft | 246 kts | 54° |
| 2026-05-07 08:08 | -8.16266 | 110.02716 | 5134 ft | 246 kts | 34° |
| 2026-05-07 08:08 | -8.14706 | 110.03422 | 5029 ft | 247 kts | 14° |
| 2026-05-07 08:09 | -8.12993 | 110.03518 | 5003 ft | 249 kts | 353° |
| 2026-05-07 08:09 | -8.11334 | 110.02990 | 5005 ft | 253 kts | 332° |
| 2026-05-07 08:09 | -8.09891 | 110.01967 | 5006 ft | 255 kts | 324° |
| 2026-05-07 08:09 | -8.08494 | 110.00909 | 5008 ft | 254 kts | 324° |
| 2026-05-07 08:10 | -8.07059 | 109.99823 | 5005 ft | 254 kts | 325° |
| 2026-05-07 08:10 | -8.05632 | 109.98748 | 4756 ft | 260 kts | 325° |
| 2026-05-07 08:10 | -8.04181 | 109.97653 | 4416 ft | 256 kts | 324° |
| 2026-05-07 08:10 | -8.02791 | 109.96601 | 4094 ft | 253 kts | 324° |
| 2026-05-07 08:11 | -8.01384 | 109.95537 | 3718 ft | 252 kts | 324° |
| 2026-05-07 08:11 | -7.99982 | 109.94479 | 3322 ft | 252 kts | 324° |
| 2026-05-07 08:11 | -7.98568 | 109.93410 | 2921 ft | 254 kts | 323° |
| 2026-05-07 08:11 | -7.97185 | 109.92362 | 2786 ft | 244 kts | 323° |
| 2026-05-07 08:12 | -7.95858 | 109.91355 | 2661 ft | 233 kts | 323° |
| 2026-05-07 08:12 | -7.94582 | 109.90388 | 2573 ft | 227 kts | 323° |
| 2026-05-07 08:12 | -7.93239 | 109.89579 | 2478 ft | 227 kts | 341° |
| 2026-05-07 08:12 | -7.91722 | 109.89175 | 2323 ft | 223 kts | 348° |
| 2026-05-07 08:13 | -7.90196 | 109.88902 | 2055 ft | 220 kts | 4° |
| 2026-05-07 08:13 | -7.88757 | 109.89194 | 1998 ft | 206 kts | 28° |
| 2026-05-07 08:13 | -7.87614 | 109.89984 | 1994 ft | 189 kts | 53° |
| 2026-05-07 08:13 | -7.86851 | 109.90970 | 2042 ft | 172 kts | 59° |
| 2026-05-07 08:14 | -7.86255 | 109.91973 | 2004 ft | 161 kts | 76° |
| 2026-05-07 08:14 | -7.86073 | 109.93052 | 2001 ft | 158 kts | 95° |
| 2026-05-07 08:14 | -7.86292 | 109.94126 | 1973 ft | 156 kts | 112° |
| 2026-05-07 08:14 | -7.86668 | 109.95151 | 1825 ft | 156 kts | 111° |
| 2026-05-07 08:15 | -7.87036 | 109.96154 | 1675 ft | 145 kts | 111° |
| 2026-05-07 08:15 | -7.87376 | 109.97084 | 1483 ft | 138 kts | 112° |
| 2026-05-07 08:15 | -7.87706 | 109.97988 | 1310 ft | 137 kts | 112° |
| 2026-05-07 08:15 | -7.88033 | 109.98882 | 1133 ft | 136 kts | 115° |
| 2026-05-07 08:16 | -7.88357 | 109.99767 | 969 ft | 135 kts | 114° |
| 2026-05-07 08:16 | -7.88697 | 110.00666 | 785 ft | 136 kts | 113° |
| 2026-05-07 08:16 | -7.89020 | 110.01556 | 640 ft | 136 kts | 112° |
| 2026-05-07 08:16 | -7.89335 | 110.02452 | 473 ft | 135 kts | 113° |
| 2026-05-07 08:17 | -7.89644 | 110.03332 | 286 ft | 132 kts | 114° |
| 2026-05-07 08:17 | -7.89964 | 110.04190 | 103 ft | 133 kts | 114° |
| 2026-05-07 08:17 | -7.90284 | 110.05031 | 29 ft | 110 kts | 111° |
| 2026-05-07 08:17 | -7.90454 | 110.05507 | 35 ft | 53 kts | 111° |
| 2026-05-07 08:18 | -7.90565 | 110.05818 | 37 ft | 43 kts | 109° |
| 2026-05-07 08:18 | -7.90661 | 110.06076 | 34 ft | 37 kts | 111° |
| 2026-05-07 08:18 | -7.90742 | 110.06306 | 34 ft | 33 kts | 110° |
| 2026-05-07 08:18 | -7.90823 | 110.06516 | 35 ft | 31 kts | 110° |
| 2026-05-07 08:19 | -7.90889 | 110.06713 | 37 ft | 29 kts | 109° |
| 2026-05-07 08:19 | -7.90937 | 110.06844 | 35 ft | 29 kts | 110° |